VNKTOPRN

Guest
Details From VNKT - Kathmandu Tribhuvan Intl
To OPRN - Chaklala
Flight Number -
Tags Generated
Created
Modified
Stats Distance 727 nm / 1,346 km
Max Altitude 0 ft / 0 m
Waypoints 3
Social Downloads 4
Likes 0
Share VATSIM

Download

Looking for another format? Having issues loading an existing format? Contact us
Advertisement - Login to hide

Notes

Generated

Route

VNKT RN080 OPRN

ID Type Via Altitude Latitude Longitude Leg Dist Tot Dist Heading (true) Name
O VNKT APT - 0 ft / 0 m 27.68381˚ 85.35342˚ - 0 nm - -
RN080 FIX - 0 ft / 0 m 33.54726˚ 73.26942˚ 716 nm 716 nm 302° / 296° -
O OPRN APT - 0 ft / 0 m 33.62378˚ 73.08317˚ 10 nm 726 nm 296° / 296° -

Altitude Profile

Advertisement - Login to hide

Weather


0- 5 10 15 20 25 30 35+ Temperature / ° C

Clouds and Precipitation
Forecast for 2018-05-27 12:00 UTC. Updated 3 hours ago

Ground ~20,000 ft ~40,000 ft Winds

VNKT

Details ICAO VNKT (KTM)
Name Kathmandu Tribhuvan Intl
Region Nepal
Timezone Asia/Kathmandu (UTC+5.8)
Stats Elevation 4,390 ft / 1,338 m (AMSL)
Location 27.696583° 85.359100°
Runways 1
Magnetic Variation 0.514° E

METAR

VNKT 271350Z 30008KT 6000 FEW020 BKN100 26/19 Q1011 NOSIG

Decode

TAF

TAF VNKT 271100Z 2712/2812 30007KT 6000 FEW020 SCT030 PROB40 2712/2718 28010KT 4000 -TSRA FEW025CB BKN100 BECMG 2714/2715 20003KT 5000 BR FEW015 SCT100 BECMG 2800/2802 VRB02KT 3000 BR FEW010 SCT100 PROB40 2801/2803 2000 BR BECMG 2804/2805 13004KT 6000 FEW015 SCT030 BECMG 2807/2808 28010KT 7000 FEW020 SCT030 BKN100 PROB40 2808/2812 30012KT 4000 -TSRA FEW025CB

Decode

Departure Runways

ID Width Length Bearing (true) Bearing (mag) Surface Threshold Offset Overrun Length
02 148 ft / 45 m 10,017 ft / 3,053 m 21.50° 20.99° Asphalt 0 ft / 0 m 0 ft / 0 m
20 148 ft / 45 m 10,017 ft / 3,053 m 201.51° 201.00° Asphalt 400 ft / 122 m 0 ft / 0 m

OPRN

Details ICAO OPRN (ISB)
Name CHAKLALA
Region Pakistan
Timezone Asia/Karachi (UTC+5.0)
Stats Elevation 1,668 ft / 508 m (AMSL)
Location 33.616768° 73.098812°
Runways 1
Magnetic Variation 2.639° E

METAR

OPRN 271400Z 31012KT 9999 FEW040 36/07 Q1004 NOSIG RMK A2965

Decode

TAF

Not found

Destination Runways

ID Width Length Bearing (true) Bearing (mag) Surface Threshold Offset Overrun Length
12 150 ft / 46 m 10,795 ft / 3,290 m 118.28° 115.64° Asphalt 885 ft / 270 m 680 ft / 207 m
30 150 ft / 46 m 10,795 ft / 3,290 m 298.30° 295.66° Asphalt 885 ft / 270 m 740 ft / 226 m

Approach Navaids

Runway Type Ident Frequency Range Bearing (true) Bearing (mag) Slope Elevation
30 Localiser IRN 110.30 MHz 18 nm / 33 km 298.21° 295.57° - 1,656 ft / 505 m (AMSL)
30 Glidescope IRN 110.30 MHz 10 nm / 19 km 298.29° 295.65° 3.00° 1,707 ft / 520 m (AMSL)
30 DME IRN 110.30 MHz 18 nm / 33 km - - - 1,713 ft / 522 m (AMSL)

Popular Alternatives